createdAt,value
2022-10-06T00:00:12.781Z,13.76
2022-10-06T00:05:31.018Z,13.78
2022-10-06T00:10:35.178Z,13.77
2022-10-06T00:15:39.822Z,13.76
2022-10-06T00:20:43.939Z,13.78
2022-10-06T00:25:48.379Z,13.78
2022-10-06T00:30:53.436Z,13.76
2022-10-06T00:35:58.397Z,13.78
2022-10-06T00:41:02.922Z,13.76
2022-10-06T00:46:07.637Z,13.78
2022-10-06T00:51:11.888Z,13.75
2022-10-06T00:56:16.120Z,13.77
2022-10-06T01:01:20.624Z,13.78
2022-10-06T01:06:24.698Z,13.75
2022-10-06T01:11:28.598Z,13.77
2022-10-06T01:16:36.122Z,13.77
2022-10-06T01:21:42.916Z,13.75
2022-10-06T01:26:48.531Z,13.75
2022-10-06T01:31:52.807Z,13.76
2022-10-06T01:36:57.039Z,13.76
2022-10-06T01:42:01.679Z,13.75
2022-10-06T01:47:06.428Z,13.75
2022-10-06T01:52:10.681Z,13.77
2022-10-06T01:57:14.778Z,13.75
2022-10-06T02:02:19.008Z,13.75
2022-10-06T02:07:23.172Z,13.75
2022-10-06T02:12:27.378Z,13.74
2022-10-06T02:17:31.081Z,13.75
2022-10-06T02:22:39.093Z,13.74
2022-10-06T02:27:42.620Z,13.77
2022-10-06T02:32:46.129Z,13.74
2022-10-06T02:37:49.751Z,13.76
2022-10-06T02:42:53.275Z,13.74
2022-10-06T02:47:56.818Z,13.74
2022-10-06T02:53:00.210Z,13.74
2022-10-06T02:58:03.808Z,13.75
2022-10-06T03:03:07.328Z,13.75
2022-10-06T03:08:11.508Z,13.75
2022-10-06T03:13:15.058Z,13.75
2022-10-06T03:18:18.582Z,13.73
2022-10-06T03:23:22.096Z,13.75
2022-10-06T03:28:25.911Z,13.74
2022-10-06T03:33:30.459Z,13.74
2022-10-06T03:38:35.132Z,13.75
2022-10-06T03:43:39.129Z,13.75
2022-10-06T03:48:42.837Z,13.75
2022-10-06T03:53:47.315Z,13.73
2022-10-06T03:58:52.433Z,13.74
2022-10-06T04:03:56.459Z,13.75
2022-10-06T04:09:00.378Z,13.75
2022-10-06T04:14:05.457Z,13.75
2022-10-06T04:19:10.119Z,13.76
2022-10-06T04:24:13.687Z,13.73
2022-10-06T04:29:17.411Z,13.72
2022-10-06T04:34:21.119Z,13.73
2022-10-06T04:39:24.856Z,13.73
2022-10-06T04:44:28.762Z,13.73
2022-10-06T04:49:32.389Z,13.72
2022-10-06T04:54:35.907Z,13.73
2022-10-06T04:59:59.501Z,13.74
2022-10-06T05:05:08.055Z,13.73
2022-10-06T05:10:11.744Z,13.74
2022-10-06T05:15:15.831Z,13.76
2022-10-06T05:20:22.428Z,13.75
2022-10-06T05:25:25.657Z,13.75
2022-10-06T05:30:29.169Z,13.76
2022-10-06T05:35:32.618Z,13.75
2022-10-06T05:40:36.207Z,13.77
2022-10-06T05:45:39.738Z,13.80
2022-10-06T05:50:43.440Z,13.84
2022-10-06T05:55:47.159Z,13.89
2022-10-06T06:00:50.677Z,13.93
2022-10-06T06:05:54.498Z,13.97
2022-10-06T06:11:06.001Z,14.01
2022-10-06T06:16:13.844Z,14.00
2022-10-06T06:21:17.627Z,13.98
2022-10-06T06:26:23.299Z,13.99
2022-10-06T06:31:27.809Z,14.01
2022-10-06T06:36:35.331Z,14.01
2022-10-06T06:41:39.677Z,14.03
2022-10-06T06:46:44.589Z,14.03
2022-10-06T06:51:49.973Z,14.04
2022-10-06T06:56:54.896Z,14.05
2022-10-06T07:01:58.690Z,14.06
2022-10-06T07:07:02.577Z,14.09
2022-10-06T07:12:06.206Z,14.09
2022-10-06T07:17:28.038Z,14.07
2022-10-06T07:22:49.471Z,14.07
2022-10-06T07:27:53.501Z,14.06
2022-10-06T07:32:56.997Z,14.07
2022-10-06T07:38:07.487Z,14.05
2022-10-06T07:43:10.865Z,14.05
2022-10-06T07:48:15.341Z,14.05
2022-10-06T07:53:19.158Z,14.04
2022-10-06T07:58:23.798Z,14.04
2022-10-06T08:03:27.542Z,14.04
2022-10-06T08:08:32.339Z,14.05
2022-10-06T08:13:37.006Z,14.05
2022-10-06T08:18:46.481Z,14.05
2022-10-06T08:23:51.390Z,14.06
2022-10-06T08:28:57.237Z,14.06
2022-10-06T08:34:01.139Z,14.06
2022-10-06T08:39:06.862Z,14.07
2022-10-06T08:44:19.199Z,14.06
2022-10-06T08:49:23.817Z,14.08
2022-10-06T08:54:31.937Z,14.08
2022-10-06T08:59:36.015Z,14.07
2022-10-06T09:04:39.591Z,14.08
2022-10-06T09:09:56.350Z,14.07
2022-10-06T09:15:05.379Z,14.08
2022-10-06T09:20:16.752Z,14.13
2022-10-06T09:25:21.804Z,14.22
2022-10-06T09:30:25.929Z,14.31
2022-10-06T09:35:31.708Z,14.38
2022-10-06T09:40:36.701Z,14.43
2022-10-06T09:45:42.017Z,14.48
2022-10-06T09:50:45.748Z,14.51
2022-10-06T09:55:55.062Z,14.55
2022-10-06T10:01:00.391Z,14.56
2022-10-06T10:06:04.158Z,14.58
2022-10-06T10:11:37.677Z,14.64
2022-10-06T10:16:41.908Z,14.67
2022-10-06T10:21:46.137Z,14.64
2022-10-06T10:26:54.277Z,14.65
2022-10-06T10:32:03.111Z,14.63
2022-10-06T10:37:09.738Z,14.64
2022-10-06T10:42:15.669Z,14.64
2022-10-06T10:47:22.670Z,14.63
2022-10-06T10:52:30.093Z,14.60
2022-10-06T10:57:36.757Z,14.59
2022-10-06T11:02:40.778Z,14.58
2022-10-06T11:07:47.422Z,14.57
2022-10-06T11:13:09.898Z,14.54
2022-10-06T11:18:22.278Z,14.51
2022-10-06T11:23:32.007Z,14.52
2022-10-06T11:28:39.884Z,14.49
2022-10-06T11:33:47.655Z,14.48
2022-10-06T11:38:54.608Z,14.47
2022-10-06T11:44:04.205Z,14.45
2022-10-06T11:49:25.842Z,14.45
2022-10-06T11:54:46.315Z,14.44
2022-10-06T11:59:50.782Z,14.47
2022-10-06T12:05:28.476Z,14.46
2022-10-06T12:10:35.194Z,14.49
2022-10-06T12:21:34.030Z,14.45
2022-10-06T12:26:46.137Z,14.46
2022-10-06T12:31:55.607Z,14.44
2022-10-06T12:37:13.247Z,14.43
2022-10-06T12:42:20.137Z,14.45
2022-10-06T12:47:29.741Z,14.45
2022-10-06T12:52:43.047Z,14.45
2022-10-06T12:57:47.909Z,14.43
2022-10-06T13:02:53.357Z,14.43
2022-10-06T13:07:57.588Z,14.44
2022-10-06T13:13:01.503Z,14.41
2022-10-06T13:18:12.287Z,14.43
2022-10-06T13:23:23.388Z,14.44
2022-10-06T13:28:28.927Z,14.41
2022-10-06T13:33:33.828Z,14.41
2022-10-06T13:38:38.739Z,14.43
2022-10-06T13:43:43.677Z,14.42
2022-10-06T13:48:48.761Z,14.43
2022-10-06T13:53:52.707Z,14.42
2022-10-06T13:58:56.377Z,14.41
2022-10-06T14:04:12.941Z,14.43
2022-10-06T14:09:20.987Z,14.41
2022-10-06T14:14:24.397Z,14.39
2022-10-06T14:19:35.250Z,14.40
2022-10-06T14:24:50.728Z,14.39
2022-10-06T14:29:55.936Z,14.40
2022-10-06T14:35:01.231Z,14.41
2022-10-06T14:40:10.147Z,14.39
2022-10-06T14:45:17.145Z,14.42
2022-10-06T14:50:21.087Z,14.39
2022-10-06T14:55:29.599Z,14.40
2022-10-06T15:00:33.457Z,14.41
2022-10-06T15:05:58.669Z,14.40
2022-10-06T15:11:02.177Z,14.43
2022-10-06T15:16:06.680Z,14.42
2022-10-06T15:21:11.008Z,14.39
2022-10-06T15:26:32.377Z,14.40
2022-10-06T15:31:36.755Z,14.42
2022-10-06T15:36:40.917Z,14.40
2022-10-06T15:41:45.420Z,14.42
2022-10-06T15:46:49.826Z,14.39
2022-10-06T15:51:54.347Z,14.42
2022-10-06T15:56:58.997Z,14.42
2022-10-06T16:02:04.493Z,14.43
2022-10-06T16:07:08.837Z,14.42
2022-10-06T16:12:13.547Z,14.41
2022-10-06T16:17:17.786Z,14.42
2022-10-06T16:22:21.591Z,14.41
2022-10-06T16:27:25.244Z,14.41
2022-10-06T16:32:30.052Z,14.40
2022-10-06T16:37:33.867Z,14.42
2022-10-06T16:42:37.679Z,14.43
2022-10-06T16:47:41.618Z,14.43
2022-10-06T16:52:45.443Z,14.42
2022-10-06T16:57:48.948Z,14.42
2022-10-06T17:02:54.129Z,14.44
2022-10-06T17:07:59.256Z,14.44
2022-10-06T17:13:03.287Z,14.44
2022-10-06T17:18:07.108Z,14.44
2022-10-06T17:23:11.007Z,14.44
2022-10-06T17:28:14.908Z,14.44
2022-10-06T17:33:19.192Z,14.42
2022-10-06T17:38:22.797Z,14.42
2022-10-06T17:43:26.628Z,14.45
2022-10-06T17:48:30.137Z,14.45
2022-10-06T17:53:33.690Z,14.44
2022-10-06T17:58:37.629Z,14.44
2022-10-06T18:03:42.566Z,14.46
2022-10-06T18:08:47.589Z,14.46
2022-10-06T18:13:51.707Z,14.46
2022-10-06T18:18:55.954Z,14.45
2022-10-06T18:23:59.557Z,14.45
2022-10-06T18:29:03.527Z,14.45
2022-10-06T18:39:31.768Z,14.48
2022-10-06T18:44:53.448Z,14.45
2022-10-06T18:49:57.912Z,14.44
2022-10-06T18:55:01.407Z,14.45
2022-10-06T19:00:06.237Z,14.46
2022-10-06T19:05:10.179Z,14.45
2022-10-06T19:10:13.886Z,14.46
2022-10-06T19:15:20.735Z,14.45
2022-10-06T19:20:25.533Z,14.46
2022-10-06T19:25:29.254Z,14.46
2022-10-06T19:30:32.914Z,14.46
2022-10-06T19:35:36.498Z,14.46
2022-10-06T19:40:39.997Z,14.46
2022-10-06T19:45:43.776Z,14.44
2022-10-06T19:50:47.328Z,14.48
2022-10-06T19:55:50.829Z,14.47
2022-10-06T20:00:54.374Z,14.48
2022-10-06T20:06:02.140Z,14.46
2022-10-06T20:11:06.694Z,14.48
2022-10-06T20:16:11.528Z,14.49
2022-10-06T20:21:16.673Z,14.47
2022-10-06T20:26:21.473Z,14.48
2022-10-06T20:31:26.317Z,14.48
2022-10-06T20:36:30.527Z,14.47
2022-10-06T20:41:34.250Z,14.48
2022-10-06T20:46:38.783Z,14.49
2022-10-06T20:51:46.400Z,14.48
2022-10-06T20:56:50.778Z,14.47
2022-10-06T21:01:54.793Z,14.48
2022-10-06T21:06:58.267Z,14.50
2022-10-06T21:12:02.104Z,14.48
2022-10-06T21:17:05.606Z,14.49
2022-10-06T21:22:09.223Z,14.49
2022-10-06T21:27:12.738Z,14.49
2022-10-06T21:32:16.254Z,14.50
2022-10-06T21:37:19.747Z,14.49
2022-10-06T21:42:23.387Z,14.49
2022-10-06T21:47:27.264Z,14.49
2022-10-06T21:52:31.026Z,14.50
2022-10-06T21:57:34.549Z,14.50
2022-10-06T22:02:38.208Z,14.49
2022-10-06T22:07:42.366Z,14.49
2022-10-06T22:12:46.006Z,14.50
2022-10-06T22:17:49.516Z,14.51
2022-10-06T22:22:53.275Z,14.50
2022-10-06T22:27:56.841Z,14.50
2022-10-06T22:33:00.481Z,14.50
2022-10-06T22:38:04.088Z,14.50
2022-10-06T22:43:07.605Z,14.49
2022-10-06T22:48:11.225Z,14.51
2022-10-06T22:53:15.853Z,14.49
2022-10-06T22:58:19.545Z,14.50
2022-10-06T23:03:23.944Z,14.49
2022-10-06T23:08:31.408Z,14.50
2022-10-06T23:13:38.525Z,14.49
2022-10-06T23:18:43.196Z,14.50
2022-10-06T23:23:46.675Z,14.50
2022-10-06T23:28:52.735Z,14.49
2022-10-06T23:33:56.365Z,14.49
2022-10-06T23:39:00.404Z,14.49
2022-10-06T23:44:03.814Z,14.49
2022-10-06T23:49:07.305Z,14.49
2022-10-06T23:54:10.742Z,14.50
2022-10-06T23:59:14.355Z,14.49
